sensor_id;sensor_type;location;lat;lon;timestamp;temperature;humidity
4354;DHT22;11018;51.258;6.806;2022-12-07T00:03:41;5.90;99.90
4354;DHT22;11018;51.258;6.806;2022-12-07T00:06:09;6.00;99.90
4354;DHT22;11018;51.258;6.806;2022-12-07T00:08:35;6.00;99.90
4354;DHT22;11018;51.258;6.806;2022-12-07T00:11:09;6.10;99.90
4354;DHT22;11018;51.258;6.806;2022-12-07T00:13:35;6.10;99.90
4354;DHT22;11018;51.258;6.806;2022-12-07T00:16:05;6.10;99.90
4354;DHT22;11018;51.258;6.806;2022-12-07T00:18:32;6.10;99.90
4354;DHT22;11018;51.258;6.806;2022-12-07T00:21:04;6.10;99.90
4354;DHT22;11018;51.258;6.806;2022-12-07T00:23:30;6.20;99.80
4354;DHT22;11018;51.258;6.806;2022-12-07T00:26:02;6.30;98.90
4354;DHT22;11018;51.258;6.806;2022-12-07T00:28:28;6.20;98.70
4354;DHT22;11018;51.258;6.806;2022-12-07T00:33:28;6.40;96.50
4354;DHT22;11018;51.258;6.806;2022-12-07T00:35:58;6.30;98.20
4354;DHT22;11018;51.258;6.806;2022-12-07T00:38:24;6.30;98.40
4354;DHT22;11018;51.258;6.806;2022-12-07T00:41:00;6.20;98.90
4354;DHT22;11018;51.258;6.806;2022-12-07T00:43:26;6.30;97.80
4354;DHT22;11018;51.258;6.806;2022-12-07T00:45:53;6.30;98.00
4354;DHT22;11018;51.258;6.806;2022-12-07T00:48:18;6.30;97.50
4354;DHT22;11018;51.258;6.806;2022-12-07T00:50:44;6.30;97.10
4354;DHT22;11018;51.258;6.806;2022-12-07T00:53:10;6.30;97.40
4354;DHT22;11018;51.258;6.806;2022-12-07T00:55:36;6.20;98.10
4354;DHT22;11018;51.258;6.806;2022-12-07T00:58:02;6.20;97.60
4354;DHT22;11018;51.258;6.806;2022-12-07T01:00:27;6.20;98.20
4354;DHT22;11018;51.258;6.806;2022-12-07T01:02:53;6.20;98.10
4354;DHT22;11018;51.258;6.806;2022-12-07T01:05:19;6.20;98.00
4354;DHT22;11018;51.258;6.806;2022-12-07T01:07:45;6.20;98.50
4354;DHT22;11018;51.258;6.806;2022-12-07T01:10:12;6.20;99.10
4354;DHT22;11018;51.258;6.806;2022-12-07T01:12:38;6.20;98.80
4354;DHT22;11018;51.258;6.806;2022-12-07T01:15:04;6.20;98.60
4354;DHT22;11018;51.258;6.806;2022-12-07T01:17:30;6.20;97.80
4354;DHT22;11018;51.258;6.806;2022-12-07T01:19:56;6.20;97.70
4354;DHT22;11018;51.258;6.806;2022-12-07T01:22:21;6.20;98.70
4354;DHT22;11018;51.258;6.806;2022-12-07T01:24:47;6.20;97.40
4354;DHT22;11018;51.258;6.806;2022-12-07T01:27:13;6.30;95.90
4354;DHT22;11018;51.258;6.806;2022-12-07T01:29:39;6.20;96.30
4354;DHT22;11018;51.258;6.806;2022-12-07T01:32:05;6.20;97.30
4354;DHT22;11018;51.258;6.806;2022-12-07T01:34:30;6.20;97.20
4354;DHT22;11018;51.258;6.806;2022-12-07T01:36:56;6.20;98.00
4354;DHT22;11018;51.258;6.806;2022-12-07T01:39:22;6.20;98.10
4354;DHT22;11018;51.258;6.806;2022-12-07T01:41:48;6.10;98.30
4354;DHT22;11018;51.258;6.806;2022-12-07T01:44:24;6.10;99.30
4354;DHT22;11018;51.258;6.806;2022-12-07T01:46:52;6.10;99.10
4354;DHT22;11018;51.258;6.806;2022-12-07T01:49:41;6.20;99.10
4354;DHT22;11018;51.258;6.806;2022-12-07T01:52:16;6.10;99.10
4354;DHT22;11018;51.258;6.806;2022-12-07T01:54:47;6.20;99.70
4354;DHT22;11018;51.258;6.806;2022-12-07T01:57:16;6.10;99.90
4354;DHT22;11018;51.258;6.806;2022-12-07T01:59:43;6.20;97.20
4354;DHT22;11018;51.258;6.806;2022-12-07T02:02:19;6.20;98.20
4354;DHT22;11018;51.258;6.806;2022-12-07T02:04:46;6.20;97.00
4354;DHT22;11018;51.258;6.806;2022-12-07T02:07:12;6.20;97.90
4354;DHT22;11018;51.258;6.806;2022-12-07T02:09:37;6.10;96.20
4354;DHT22;11018;51.258;6.806;2022-12-07T02:12:04;6.10;96.90
4354;DHT22;11018;51.258;6.806;2022-12-07T02:14:29;6.20;95.60
4354;DHT22;11018;51.258;6.806;2022-12-07T02:25:40;6.00;97.30
4354;DHT22;11018;51.258;6.806;2022-12-07T02:28:28;6.00;97.40
4354;DHT22;11018;51.258;6.806;2022-12-07T02:30:56;5.90;99.90
4354;DHT22;11018;51.258;6.806;2022-12-07T02:33:41;5.90;99.90
4354;DHT22;11018;51.258;6.806;2022-12-07T02:36:12;5.90;99.90
4354;DHT22;11018;51.258;6.806;2022-12-07T02:38:55;6.00;98.50
4354;DHT22;11018;51.258;6.806;2022-12-07T02:44:10;5.90;99.90
4354;DHT22;11018;51.258;6.806;2022-12-07T02:46:43;5.90;99.90
4354;DHT22;11018;51.258;6.806;2022-12-07T02:49:10;5.90;99.90
4354;DHT22;11018;51.258;6.806;2022-12-07T02:51:41;6.00;97.90
4354;DHT22;11018;51.258;6.806;2022-12-07T02:54:12;6.00;97.10
4354;DHT22;11018;51.258;6.806;2022-12-07T02:56:46;5.90;98.60
4354;DHT22;11018;51.258;6.806;2022-12-07T03:07:22;6.00;97.00
4354;DHT22;11018;51.258;6.806;2022-12-07T03:09:55;5.90;97.40
4354;DHT22;11018;51.258;6.806;2022-12-07T03:15:42;6.10;93.80
4354;DHT22;11018;51.258;6.806;2022-12-07T03:18:10;6.10;96.10
4354;DHT22;11018;51.258;6.806;2022-12-07T03:20:39;6.10;94.00
4354;DHT22;11018;51.258;6.806;2022-12-07T03:23:08;6.00;96.30
4354;DHT22;11018;51.258;6.806;2022-12-07T03:25:39;6.00;96.20
4354;DHT22;11018;51.258;6.806;2022-12-07T03:28:06;6.20;92.30
4354;DHT22;11018;51.258;6.806;2022-12-07T03:30:57;6.30;90.60
4354;DHT22;11018;51.258;6.806;2022-12-07T03:33:42;6.30;87.10
4354;DHT22;11018;51.258;6.806;2022-12-07T03:36:25;6.20;87.20
4354;DHT22;11018;51.258;6.806;2022-12-07T03:39:00;6.00;90.20
4354;DHT22;11018;51.258;6.806;2022-12-07T03:41:30;5.90;91.00
4354;DHT22;11018;51.258;6.806;2022-12-07T03:43:58;5.90;91.10
4354;DHT22;11018;51.258;6.806;2022-12-07T03:55:28;5.60;99.20
4354;DHT22;11018;51.258;6.806;2022-12-07T03:57:35;5.60;99.80
4354;DHT22;11018;51.258;6.806;2022-12-07T04:00:04;5.60;99.00
4354;DHT22;11018;51.258;6.806;2022-12-07T04:02:30;5.60;99.90
4354;DHT22;11018;51.258;6.806;2022-12-07T04:04:56;5.80;99.30
4354;DHT22;11018;51.258;6.806;2022-12-07T04:07:21;6.00;92.90
4354;DHT22;11018;51.258;6.806;2022-12-07T04:09:47;6.00;89.80
4354;DHT22;11018;51.258;6.806;2022-12-07T04:12:12;6.00;89.60
4354;DHT22;11018;51.258;6.806;2022-12-07T04:14:38;5.90;90.50
4354;DHT22;11018;51.258;6.806;2022-12-07T04:17:04;5.80;91.40
4354;DHT22;11018;51.258;6.806;2022-12-07T04:19:32;5.70;91.60
4354;DHT22;11018;51.258;6.806;2022-12-07T04:21:58;5.70;93.90
4354;DHT22;11018;51.258;6.806;2022-12-07T04:24:24;5.70;93.50
4354;DHT22;11018;51.258;6.806;2022-12-07T04:26:50;5.70;95.00
4354;DHT22;11018;51.258;6.806;2022-12-07T04:29:17;5.70;96.90
4354;DHT22;11018;51.258;6.806;2022-12-07T04:31:43;5.70;95.90
4354;DHT22;11018;51.258;6.806;2022-12-07T04:34:10;5.60;97.70
4354;DHT22;11018;51.258;6.806;2022-12-07T04:36:36;5.50;99.90
4354;DHT22;11018;51.258;6.806;2022-12-07T04:39:03;5.50;99.90
4354;DHT22;11018;51.258;6.806;2022-12-07T04:41:29;5.60;99.90
4354;DHT22;11018;51.258;6.806;2022-12-07T04:43:56;5.80;93.70
4354;DHT22;11018;51.258;6.806;2022-12-07T04:46:22;5.80;93.30
4354;DHT22;11018;51.258;6.806;2022-12-07T04:48:49;5.90;93.30
4354;DHT22;11018;51.258;6.806;2022-12-07T04:51:19;5.80;94.80
4354;DHT22;11018;51.258;6.806;2022-12-07T04:53:45;5.60;95.70
4354;DHT22;11018;51.258;6.806;2022-12-07T04:56:10;5.50;96.20
4354;DHT22;11018;51.258;6.806;2022-12-07T04:58:36;5.50;97.30
4354;DHT22;11018;51.258;6.806;2022-12-07T05:01:01;5.60;97.60
4354;DHT22;11018;51.258;6.806;2022-12-07T05:03:27;5.60;93.80
4354;DHT22;11018;51.258;6.806;2022-12-07T05:05:52;5.70;91.80
4354;DHT22;11018;51.258;6.806;2022-12-07T05:08:18;5.70;91.20
4354;DHT22;11018;51.258;6.806;2022-12-07T05:10:43;5.60;90.80
4354;DHT22;11018;51.258;6.806;2022-12-07T05:13:09;5.60;92.30
4354;DHT22;11018;51.258;6.806;2022-12-07T05:15:34;5.50;91.80
4354;DHT22;11018;51.258;6.806;2022-12-07T05:18:00;5.50;92.60
4354;DHT22;11018;51.258;6.806;2022-12-07T05:20:26;5.50;93.10
4354;DHT22;11018;51.258;6.806;2022-12-07T05:22:51;5.50;92.60
4354;DHT22;11018;51.258;6.806;2022-12-07T05:25:17;5.40;92.70
4354;DHT22;11018;51.258;6.806;2022-12-07T05:27:42;5.40;93.60
4354;DHT22;11018;51.258;6.806;2022-12-07T05:30:08;5.40;93.30
4354;DHT22;11018;51.258;6.806;2022-12-07T05:32:34;5.40;93.70
4354;DHT22;11018;51.258;6.806;2022-12-07T05:34:59;5.50;94.10
4354;DHT22;11018;51.258;6.806;2022-12-07T05:37:25;5.50;92.00
4354;DHT22;11018;51.258;6.806;2022-12-07T05:39:50;5.50;92.00
4354;DHT22;11018;51.258;6.806;2022-12-07T05:42:16;5.50;91.80
4354;DHT22;11018;51.258;6.806;2022-12-07T05:44:45;5.60;91.30
4354;DHT22;11018;51.258;6.806;2022-12-07T05:47:12;5.50;91.30
4354;DHT22;11018;51.258;6.806;2022-12-07T05:49:38;5.50;91.70
4354;DHT22;11018;51.258;6.806;2022-12-07T05:52:05;5.60;91.20
4354;DHT22;11018;51.258;6.806;2022-12-07T05:54:30;5.60;90.00
4354;DHT22;11018;51.258;6.806;2022-12-07T05:56:56;5.60;89.20
4354;DHT22;11018;51.258;6.806;2022-12-07T05:59:22;5.60;88.00
4354;DHT22;11018;51.258;6.806;2022-12-07T06:01:52;5.60;88.10
4354;DHT22;11018;51.258;6.806;2022-12-07T06:04:21;5.60;90.00
4354;DHT22;11018;51.258;6.806;2022-12-07T06:06:47;5.60;90.30
4354;DHT22;11018;51.258;6.806;2022-12-07T06:09:13;5.60;89.10
4354;DHT22;11018;51.258;6.806;2022-12-07T06:11:40;5.70;88.50
4354;DHT22;11018;51.258;6.806;2022-12-07T06:14:24;5.60;88.60
4354;DHT22;11018;51.258;6.806;2022-12-07T06:16:50;5.40;93.80
4354;DHT22;11018;51.258;6.806;2022-12-07T06:19:16;5.40;94.00
4354;DHT22;11018;51.258;6.806;2022-12-07T06:21:42;5.40;96.00
4354;DHT22;11018;51.258;6.806;2022-12-07T06:24:11;5.50;94.50
4354;DHT22;11018;51.258;6.806;2022-12-07T06:26:36;5.60;91.20
4354;DHT22;11018;51.258;6.806;2022-12-07T06:29:02;5.50;93.10
4354;DHT22;11018;51.258;6.806;2022-12-07T06:31:28;5.70;92.00
4354;DHT22;11018;51.258;6.806;2022-12-07T06:34:01;5.60;91.60
4354;DHT22;11018;51.258;6.806;2022-12-07T06:36:27;5.50;91.60
4354;DHT22;11018;51.258;6.806;2022-12-07T06:38:53;5.60;91.50
4354;DHT22;11018;51.258;6.806;2022-12-07T06:41:18;5.70;90.90
4354;DHT22;11018;51.258;6.806;2022-12-07T06:43:44;5.60;89.40
4354;DHT22;11018;51.258;6.806;2022-12-07T06:46:10;5.60;90.60
4354;DHT22;11018;51.258;6.806;2022-12-07T06:48:35;5.50;89.40
4354;DHT22;11018;51.258;6.806;2022-12-07T06:51:01;5.60;88.40
4354;DHT22;11018;51.258;6.806;2022-12-07T06:53:26;5.50;89.80
4354;DHT22;11018;51.258;6.806;2022-12-07T06:55:52;5.50;89.50
4354;DHT22;11018;51.258;6.806;2022-12-07T06:58:17;5.50;90.20
4354;DHT22;11018;51.258;6.806;2022-12-07T07:00:44;5.40;90.70
4354;DHT22;11018;51.258;6.806;2022-12-07T07:03:10;5.40;93.00
4354;DHT22;11018;51.258;6.806;2022-12-07T07:05:35;5.30;94.90
4354;DHT22;11018;51.258;6.806;2022-12-07T07:08:01;5.40;93.60
4354;DHT22;11018;51.258;6.806;2022-12-07T07:10:27;5.40;94.00
4354;DHT22;11018;51.258;6.806;2022-12-07T07:12:52;5.40;91.90
4354;DHT22;11018;51.258;6.806;2022-12-07T07:15:18;5.40;92.70
4354;DHT22;11018;51.258;6.806;2022-12-07T07:17:43;5.30;92.80
4354;DHT22;11018;51.258;6.806;2022-12-07T07:20:09;5.30;94.50
4354;DHT22;11018;51.258;6.806;2022-12-07T07:22:35;5.30;94.00
4354;DHT22;11018;51.258;6.806;2022-12-07T07:25:01;5.20;94.10
4354;DHT22;11018;51.258;6.806;2022-12-07T07:27:26;5.30;94.60
4354;DHT22;11018;51.258;6.806;2022-12-07T07:29:52;5.40;94.10
4354;DHT22;11018;51.258;6.806;2022-12-07T07:32:17;5.40;93.60
4354;DHT22;11018;51.258;6.806;2022-12-07T07:34:43;5.30;93.20
4354;DHT22;11018;51.258;6.806;2022-12-07T07:37:08;5.40;93.60
4354;DHT22;11018;51.258;6.806;2022-12-07T07:39:36;5.40;92.50
4354;DHT22;11018;51.258;6.806;2022-12-07T07:42:01;5.40;91.20
4354;DHT22;11018;51.258;6.806;2022-12-07T07:44:27;5.50;91.10
4354;DHT22;11018;51.258;6.806;2022-12-07T07:46:53;5.60;88.30
4354;DHT22;11018;51.258;6.806;2022-12-07T07:49:18;5.30;89.10
4354;DHT22;11018;51.258;6.806;2022-12-07T07:51:44;5.10;91.90
4354;DHT22;11018;51.258;6.806;2022-12-07T07:54:09;5.00;96.00
4354;DHT22;11018;51.258;6.806;2022-12-07T07:56:35;4.90;97.20
4354;DHT22;11018;51.258;6.806;2022-12-07T07:59:00;5.10;96.20
4354;DHT22;11018;51.258;6.806;2022-12-07T08:01:26;5.10;92.90
4354;DHT22;11018;51.258;6.806;2022-12-07T08:03:51;4.90;95.40
4354;DHT22;11018;51.258;6.806;2022-12-07T08:06:17;4.90;99.90
4354;DHT22;11018;51.258;6.806;2022-12-07T08:08:43;4.90;99.70
4354;DHT22;11018;51.258;6.806;2022-12-07T08:11:09;4.90;99.90
4354;DHT22;11018;51.258;6.806;2022-12-07T08:13:35;5.00;99.90
4354;DHT22;11018;51.258;6.806;2022-12-07T08:16:06;5.00;99.60
4354;DHT22;11018;51.258;6.806;2022-12-07T08:18:38;5.10;99.70
4354;DHT22;11018;51.258;6.806;2022-12-07T08:21:04;5.30;99.10
4354;DHT22;11018;51.258;6.806;2022-12-07T08:23:30;5.40;96.60
4354;DHT22;11018;51.258;6.806;2022-12-07T08:26:00;5.60;90.80
4354;DHT22;11018;51.258;6.806;2022-12-07T08:28:25;5.60;88.00
4354;DHT22;11018;51.258;6.806;2022-12-07T08:30:51;5.60;87.00
4354;DHT22;11018;51.258;6.806;2022-12-07T08:33:17;5.50;88.80
4354;DHT22;11018;51.258;6.806;2022-12-07T08:35:42;5.50;89.30
4354;DHT22;11018;51.258;6.806;2022-12-07T08:38:08;5.50;89.30
4354;DHT22;11018;51.258;6.806;2022-12-07T08:40:34;5.60;86.70
4354;DHT22;11018;51.258;6.806;2022-12-07T08:43:00;5.60;86.60
4354;DHT22;11018;51.258;6.806;2022-12-07T08:45:26;5.50;86.70
4354;DHT22;11018;51.258;6.806;2022-12-07T08:47:57;5.50;87.40
4354;DHT22;11018;51.258;6.806;2022-12-07T08:50:25;5.50;87.40
4354;DHT22;11018;51.258;6.806;2022-12-07T08:52:53;5.50;87.70
4354;DHT22;11018;51.258;6.806;2022-12-07T08:55:19;5.40;89.00
4354;DHT22;11018;51.258;6.806;2022-12-07T08:57:45;5.30;89.50
4354;DHT22;11018;51.258;6.806;2022-12-07T09:00:12;5.30;91.20
4354;DHT22;11018;51.258;6.806;2022-12-07T09:02:37;5.20;91.70
4354;DHT22;11018;51.258;6.806;2022-12-07T09:05:03;5.10;93.50
4354;DHT22;11018;51.258;6.806;2022-12-07T09:07:30;5.10;95.30
4354;DHT22;11018;51.258;6.806;2022-12-07T09:09:57;5.10;94.40
4354;DHT22;11018;51.258;6.806;2022-12-07T09:12:23;5.20;94.50
4354;DHT22;11018;51.258;6.806;2022-12-07T09:14:48;5.30;93.40
4354;DHT22;11018;51.258;6.806;2022-12-07T09:17:14;5.50;93.80
4354;DHT22;11018;51.258;6.806;2022-12-07T09:19:39;5.80;89.20
4354;DHT22;11018;51.258;6.806;2022-12-07T09:22:07;5.90;85.50
4354;DHT22;11018;51.258;6.806;2022-12-07T09:24:33;5.90;82.90
4354;DHT22;11018;51.258;6.806;2022-12-07T09:26:58;6.00;82.90
4354;DHT22;11018;51.258;6.806;2022-12-07T09:29:25;6.00;82.20
4354;DHT22;11018;51.258;6.806;2022-12-07T09:31:51;5.90;82.80
4354;DHT22;11018;51.258;6.806;2022-12-07T09:34:17;5.80;83.10
4354;DHT22;11018;51.258;6.806;2022-12-07T09:36:43;5.80;85.10
4354;DHT22;11018;51.258;6.806;2022-12-07T09:39:09;5.70;85.90
4354;DHT22;11018;51.258;6.806;2022-12-07T09:41:38;5.80;87.00
4354;DHT22;11018;51.258;6.806;2022-12-07T09:44:11;6.10;83.60
4354;DHT22;11018;51.258;6.806;2022-12-07T09:46:40;6.20;81.10
4354;DHT22;11018;51.258;6.806;2022-12-07T09:49:12;6.30;77.90
4354;DHT22;11018;51.258;6.806;2022-12-07T09:51:39;6.50;75.20
4354;DHT22;11018;51.258;6.806;2022-12-07T09:54:05;6.40;74.60
4354;DHT22;11018;51.258;6.806;2022-12-07T09:56:31;6.50;74.70
4354;DHT22;11018;51.258;6.806;2022-12-07T09:59:01;6.70;72.90
4354;DHT22;11018;51.258;6.806;2022-12-07T10:01:30;6.70;72.20
4354;DHT22;11018;51.258;6.806;2022-12-07T10:06:35;6.80;73.10
4354;DHT22;11018;51.258;6.806;2022-12-07T10:09:00;6.80;71.60
4354;DHT22;11018;51.258;6.806;2022-12-07T10:11:26;6.90;69.40
4354;DHT22;11018;51.258;6.806;2022-12-07T10:13:53;7.00;68.10
4354;DHT22;11018;51.258;6.806;2022-12-07T10:16:39;7.00;68.80
4354;DHT22;11018;51.258;6.806;2022-12-07T10:19:30;7.20;65.90
4354;DHT22;11018;51.258;6.806;2022-12-07T10:22:22;7.10;66.70
4354;DHT22;11018;51.258;6.806;2022-12-07T10:24:48;7.20;64.80
4354;DHT22;11018;51.258;6.806;2022-12-07T10:27:22;7.20;64.90
4354;DHT22;11018;51.258;6.806;2022-12-07T10:29:52;7.20;65.40
4354;DHT22;11018;51.258;6.806;2022-12-07T10:34:44;7.10;64.60
4354;DHT22;11018;51.258;6.806;2022-12-07T10:39:48;7.10;65.30
4354;DHT22;11018;51.258;6.806;2022-12-07T10:42:30;7.00;66.10
4354;DHT22;11018;51.258;6.806;2022-12-07T10:48:18;7.00;66.40
4354;DHT22;11018;51.258;6.806;2022-12-07T11:04:38;6.70;68.20
4354;DHT22;11018;51.258;6.806;2022-12-07T11:07:17;6.70;66.30
4354;DHT22;11018;51.258;6.806;2022-12-07T11:10:03;6.70;66.40
4354;DHT22;11018;51.258;6.806;2022-12-07T11:18:24;6.70;67.40
4354;DHT22;11018;51.258;6.806;2022-12-07T11:34:54;7.40;58.90
4354;DHT22;11018;51.258;6.806;2022-12-07T11:37:32;7.70;58.60
4354;DHT22;11018;51.258;6.806;2022-12-07T11:40:20;7.90;55.50
4354;DHT22;11018;51.258;6.806;2022-12-07T11:43:01;7.90;55.20
4354;DHT22;11018;51.258;6.806;2022-12-07T11:45:33;8.00;53.20
4354;DHT22;11018;51.258;6.806;2022-12-07T11:48:02;8.00;51.70
4354;DHT22;11018;51.258;6.806;2022-12-07T11:50:40;8.00;51.00
4354;DHT22;11018;51.258;6.806;2022-12-07T11:53:17;8.00;51.80
4354;DHT22;11018;51.258;6.806;2022-12-07T12:03:56;8.20;51.80
4354;DHT22;11018;51.258;6.806;2022-12-07T12:06:25;8.30;50.10
4354;DHT22;11018;51.258;6.806;2022-12-07T12:11:39;8.30;48.70
4354;DHT22;11018;51.258;6.806;2022-12-07T12:22:21;8.20;50.50
4354;DHT22;11018;51.258;6.806;2022-12-07T12:24:51;8.20;49.80
4354;DHT22;11018;51.258;6.806;2022-12-07T12:27:26;8.20;51.10
4354;DHT22;11018;51.258;6.806;2022-12-07T12:30:00;8.30;51.10
4354;DHT22;11018;51.258;6.806;2022-12-07T12:37:46;8.40;49.20
4354;DHT22;11018;51.258;6.806;2022-12-07T12:42:54;8.20;49.70
4354;DHT22;11018;51.258;6.806;2022-12-07T12:50:43;8.20;50.80
4354;DHT22;11018;51.258;6.806;2022-12-07T12:53:24;8.40;49.80
4354;DHT22;11018;51.258;6.806;2022-12-07T12:58:38;8.30;49.70
4354;DHT22;11018;51.258;6.806;2022-12-07T13:01:36;8.20;52.40
4354;DHT22;11018;51.258;6.806;2022-12-07T13:04:28;8.20;53.60
4354;DHT22;11018;51.258;6.806;2022-12-07T13:06:55;8.30;51.50
4354;DHT22;11018;51.258;6.806;2022-12-07T13:09:27;8.30;49.80
4354;DHT22;11018;51.258;6.806;2022-12-07T13:12:00;8.10;52.50
4354;DHT22;11018;51.258;6.806;2022-12-07T13:14:51;7.90;50.90
4354;DHT22;11018;51.258;6.806;2022-12-07T13:20:03;7.70;53.10
4354;DHT22;11018;51.258;6.806;2022-12-07T13:25:18;7.70;55.20
4354;DHT22;11018;51.258;6.806;2022-12-07T13:28:01;7.60;54.90
4354;DHT22;11018;51.258;6.806;2022-12-07T13:30:28;7.60;55.30
4354;DHT22;11018;51.258;6.806;2022-12-07T13:32:56;7.70;54.80
4354;DHT22;11018;51.258;6.806;2022-12-07T13:35:34;7.70;52.80
4354;DHT22;11018;51.258;6.806;2022-12-07T13:38:25;7.70;51.60
4354;DHT22;11018;51.258;6.806;2022-12-07T13:43:44;8.00;49.00
4354;DHT22;11018;51.258;6.806;2022-12-07T13:46:11;8.00;48.60
4354;DHT22;11018;51.258;6.806;2022-12-07T13:48:47;7.90;48.60
4354;DHT22;11018;51.258;6.806;2022-12-07T13:51:40;8.00;48.50
4354;DHT22;11018;51.258;6.806;2022-12-07T13:54:13;8.10;46.70
4354;DHT22;11018;51.258;6.806;2022-12-07T13:56:39;8.00;46.60
4354;DHT22;11018;51.258;6.806;2022-12-07T13:59:17;8.00;48.10
4354;DHT22;11018;51.258;6.806;2022-12-07T14:01:46;8.00;48.40
4354;DHT22;11018;51.258;6.806;2022-12-07T14:04:36;8.00;47.60
4354;DHT22;11018;51.258;6.806;2022-12-07T14:07:24;7.90;46.70
4354;DHT22;11018;51.258;6.806;2022-12-07T14:10:02;7.80;47.50
4354;DHT22;11018;51.258;6.806;2022-12-07T14:12:30;7.70;48.40
4354;DHT22;11018;51.258;6.806;2022-12-07T14:14:57;7.60;49.90
4354;DHT22;11018;51.258;6.806;2022-12-07T14:17:25;7.70;50.00
4354;DHT22;11018;51.258;6.806;2022-12-07T14:20:01;7.70;50.20
4354;DHT22;11018;51.258;6.806;2022-12-07T14:22:31;7.80;49.00
4354;DHT22;11018;51.258;6.806;2022-12-07T14:24:59;7.70;48.30
4354;DHT22;11018;51.258;6.806;2022-12-07T14:27:31;7.70;48.90
4354;DHT22;11018;51.258;6.806;2022-12-07T14:30:03;7.70;48.90
4354;DHT22;11018;51.258;6.806;2022-12-07T14:32:29;7.80;48.70
4354;DHT22;11018;51.258;6.806;2022-12-07T14:35:10;7.80;48.40
4354;DHT22;11018;51.258;6.806;2022-12-07T14:37:37;7.70;48.80
4354;DHT22;11018;51.258;6.806;2022-12-07T14:40:03;7.60;50.80
4354;DHT22;11018;51.258;6.806;2022-12-07T14:42:30;7.60;51.40
4354;DHT22;11018;51.258;6.806;2022-12-07T14:44:57;7.80;50.90
4354;DHT22;11018;51.258;6.806;2022-12-07T14:47:23;7.80;50.50
4354;DHT22;11018;51.258;6.806;2022-12-07T14:49:49;7.70;51.30
4354;DHT22;11018;51.258;6.806;2022-12-07T14:52:21;7.50;52.90
4354;DHT22;11018;51.258;6.806;2022-12-07T14:54:48;7.40;54.10
4354;DHT22;11018;51.258;6.806;2022-12-07T14:57:14;7.40;54.60
4354;DHT22;11018;51.258;6.806;2022-12-07T14:59:39;7.30;55.10
4354;DHT22;11018;51.258;6.806;2022-12-07T15:02:06;7.20;57.00
4354;DHT22;11018;51.258;6.806;2022-12-07T15:04:31;7.10;58.10
4354;DHT22;11018;51.258;6.806;2022-12-07T15:06:59;7.00;59.40
4354;DHT22;11018;51.258;6.806;2022-12-07T15:09:25;7.00;60.60
4354;DHT22;11018;51.258;6.806;2022-12-07T15:11:51;7.00;61.30
4354;DHT22;11018;51.258;6.806;2022-12-07T15:14:16;6.80;62.00
4354;DHT22;11018;51.258;6.806;2022-12-07T15:16:43;6.80;63.40
4354;DHT22;11018;51.258;6.806;2022-12-07T15:19:13;6.70;64.40
4354;DHT22;11018;51.258;6.806;2022-12-07T15:21:39;6.90;63.30
4354;DHT22;11018;51.258;6.806;2022-12-07T15:24:05;6.80;63.80
4354;DHT22;11018;51.258;6.806;2022-12-07T15:26:31;6.80;62.40
4354;DHT22;11018;51.258;6.806;2022-12-07T15:28:57;6.90;61.20
4354;DHT22;11018;51.258;6.806;2022-12-07T15:31:22;7.00;60.80
4354;DHT22;11018;51.258;6.806;2022-12-07T15:33:48;7.00;60.80
4354;DHT22;11018;51.258;6.806;2022-12-07T15:36:25;7.00;61.80
4354;DHT22;11018;51.258;6.806;2022-12-07T15:38:51;7.00;62.00
4354;DHT22;11018;51.258;6.806;2022-12-07T15:41:17;6.90;62.10
4354;DHT22;11018;51.258;6.806;2022-12-07T15:43:44;7.00;62.50
4354;DHT22;11018;51.258;6.806;2022-12-07T15:46:35;7.00;62.60
4354;DHT22;11018;51.258;6.806;2022-12-07T15:49:02;7.00;62.00
4354;DHT22;11018;51.258;6.806;2022-12-07T15:51:28;7.00;61.80
4354;DHT22;11018;51.258;6.806;2022-12-07T15:53:53;7.00;61.20
4354;DHT22;11018;51.258;6.806;2022-12-07T15:56:19;7.00;62.10
4354;DHT22;11018;51.258;6.806;2022-12-07T15:58:45;6.90;62.70
4354;DHT22;11018;51.258;6.806;2022-12-07T16:01:16;6.80;63.70
4354;DHT22;11018;51.258;6.806;2022-12-07T16:03:43;6.80;63.80
4354;DHT22;11018;51.258;6.806;2022-12-07T16:06:09;6.80;63.80
4354;DHT22;11018;51.258;6.806;2022-12-07T16:08:35;6.80;64.00
4354;DHT22;11018;51.258;6.806;2022-12-07T16:11:07;6.80;64.30
4354;DHT22;11018;51.258;6.806;2022-12-07T16:13:33;6.70;65.20
4354;DHT22;11018;51.258;6.806;2022-12-07T16:16:05;6.70;65.70
4354;DHT22;11018;51.258;6.806;2022-12-07T16:18:31;6.70;66.10
4354;DHT22;11018;51.258;6.806;2022-12-07T16:20:57;6.60;66.90
4354;DHT22;11018;51.258;6.806;2022-12-07T16:23:22;6.60;67.60
4354;DHT22;11018;51.258;6.806;2022-12-07T16:25:48;6.60;67.60
4354;DHT22;11018;51.258;6.806;2022-12-07T16:28:13;6.60;68.20
4354;DHT22;11018;51.258;6.806;2022-12-07T16:30:39;6.60;67.90
4354;DHT22;11018;51.258;6.806;2022-12-07T16:33:04;6.60;67.60
4354;DHT22;11018;51.258;6.806;2022-12-07T16:35:30;6.50;68.40
4354;DHT22;11018;51.258;6.806;2022-12-07T16:37:55;6.60;68.40
4354;DHT22;11018;51.258;6.806;2022-12-07T16:40:21;6.60;68.10
4354;DHT22;11018;51.258;6.806;2022-12-07T16:42:47;6.60;69.50
4354;DHT22;11018;51.258;6.806;2022-12-07T16:45:12;6.50;70.00
4354;DHT22;11018;51.258;6.806;2022-12-07T16:47:39;6.50;71.10
4354;DHT22;11018;51.258;6.806;2022-12-07T16:50:05;6.50;71.40
4354;DHT22;11018;51.258;6.806;2022-12-07T16:52:33;6.40;72.30
4354;DHT22;11018;51.258;6.806;2022-12-07T16:54:58;6.50;72.30
4354;DHT22;11018;51.258;6.806;2022-12-07T16:57:24;6.50;72.30
4354;DHT22;11018;51.258;6.806;2022-12-07T16:59:51;6.40;73.20
4354;DHT22;11018;51.258;6.806;2022-12-07T17:02:17;6.40;73.60
4354;DHT22;11018;51.258;6.806;2022-12-07T17:04:42;6.40;74.70
4354;DHT22;11018;51.258;6.806;2022-12-07T17:07:08;6.40;74.40
4354;DHT22;11018;51.258;6.806;2022-12-07T17:09:34;6.40;74.80
4354;DHT22;11018;51.258;6.806;2022-12-07T17:12:00;6.40;74.80
4354;DHT22;11018;51.258;6.806;2022-12-07T17:14:26;6.50;75.30
4354;DHT22;11018;51.258;6.806;2022-12-07T17:17:10;6.50;75.70
4354;DHT22;11018;51.258;6.806;2022-12-07T17:19:36;6.40;74.70
4354;DHT22;11018;51.258;6.806;2022-12-07T17:22:02;6.40;75.80
4354;DHT22;11018;51.258;6.806;2022-12-07T17:24:27;6.50;75.70
4354;DHT22;11018;51.258;6.806;2022-12-07T17:26:53;6.40;76.30
4354;DHT22;11018;51.258;6.806;2022-12-07T17:29:18;6.50;75.90
4354;DHT22;11018;51.258;6.806;2022-12-07T17:31:45;6.50;76.70
4354;DHT22;11018;51.258;6.806;2022-12-07T17:34:12;6.50;77.50
4354;DHT22;11018;51.258;6.806;2022-12-07T17:36:39;6.50;77.00
4354;DHT22;11018;51.258;6.806;2022-12-07T17:39:13;6.50;76.40
4354;DHT22;11018;51.258;6.806;2022-12-07T17:41:39;6.40;77.10
4354;DHT22;11018;51.258;6.806;2022-12-07T17:44:24;6.30;78.60
4354;DHT22;11018;51.258;6.806;2022-12-07T17:46:51;6.40;77.50
4354;DHT22;11018;51.258;6.806;2022-12-07T17:49:23;6.40;77.70
4354;DHT22;11018;51.258;6.806;2022-12-07T17:51:49;6.40;78.50
4354;DHT22;11018;51.258;6.806;2022-12-07T17:54:33;6.40;77.80
4354;DHT22;11018;51.258;6.806;2022-12-07T17:56:59;6.30;77.70
4354;DHT22;11018;51.258;6.806;2022-12-07T17:59:24;6.30;77.40
4354;DHT22;11018;51.258;6.806;2022-12-07T18:01:50;6.30;76.20
4354;DHT22;11018;51.258;6.806;2022-12-07T18:04:16;6.20;74.70
4354;DHT22;11018;51.258;6.806;2022-12-07T18:06:42;6.20;72.90
4354;DHT22;11018;51.258;6.806;2022-12-07T18:09:08;6.20;72.10
4354;DHT22;11018;51.258;6.806;2022-12-07T18:11:34;6.20;70.00
4354;DHT22;11018;51.258;6.806;2022-12-07T18:14:00;6.20;69.50
4354;DHT22;11018;51.258;6.806;2022-12-07T18:16:28;6.20;69.90